sensor_id;sensor_type;location;lat;lon;timestamp;P1;durP1;ratioP1;P2;durP2;ratioP2
69369;SDS011;56530;42.640;23.372;2023-08-06T00:01:48;4.53;;;2.85;;
69369;SDS011;56530;42.640;23.372;2023-08-06T00:04:13;3.15;;;2.90;;
69369;SDS011;56530;42.640;23.372;2023-08-06T00:06:39;2.67;;;2.38;;
69369;SDS011;56530;42.640;23.372;2023-08-06T00:09:04;5.07;;;2.85;;
69369;SDS011;56530;42.640;23.372;2023-08-06T00:11:30;5.35;;;2.92;;
69369;SDS011;56530;42.640;23.372;2023-08-06T00:13:55;5.85;;;3.40;;
69369;SDS011;56530;42.640;23.372;2023-08-06T00:16:20;2.60;;;2.30;;
69369;SDS011;56530;42.640;23.372;2023-08-06T00:18:46;2.80;;;2.55;;
69369;SDS011;56530;42.640;23.372;2023-08-06T00:21:11;3.45;;;3.00;;
69369;SDS011;56530;42.640;23.372;2023-08-06T00:23:37;3.28;;;2.80;;
69369;SDS011;56530;42.640;23.372;2023-08-06T00:26:03;2.58;;;2.38;;
69369;SDS011;56530;42.640;23.372;2023-08-06T00:28:28;3.97;;;2.67;;
69369;SDS011;56530;42.640;23.372;2023-08-06T00:30:54;2.80;;;2.45;;
69369;SDS011;56530;42.640;23.372;2023-08-06T00:33:20;3.53;;;2.90;;
69369;SDS011;56530;42.640;23.372;2023-08-06T00:35:46;8.10;;;3.38;;
69369;SDS011;56530;42.640;23.372;2023-08-06T00:38:11;3.28;;;2.70;;
69369;SDS011;56530;42.640;23.372;2023-08-06T00:40:37;3.33;;;2.85;;
69369;SDS011;56530;42.640;23.372;2023-08-06T00:43:02;3.20;;;2.83;;
69369;SDS011;56530;42.640;23.372;2023-08-06T00:45:28;2.53;;;2.33;;
69369;SDS011;56530;42.640;23.372;2023-08-06T00:47:54;3.40;;;3.10;;
69369;SDS011;56530;42.640;23.372;2023-08-06T00:50:20;3.95;;;3.13;;
69369;SDS011;56530;42.640;23.372;2023-08-06T00:52:47;2.92;;;2.72;;
69369;SDS011;56530;42.640;23.372;2023-08-06T00:55:13;2.92;;;2.60;;
69369;SDS011;56530;42.640;23.372;2023-08-06T00:57:39;4.35;;;2.72;;
69369;SDS011;56530;42.640;23.372;2023-08-06T01:00:04;5.13;;;3.00;;
69369;SDS011;56530;42.640;23.372;2023-08-06T01:02:30;3.25;;;2.95;;
69369;SDS011;56530;42.640;23.372;2023-08-06T01:04:55;2.50;;;2.15;;
69369;SDS011;56530;42.640;23.372;2023-08-06T01:12:55;4.68;;;2.90;;
69369;SDS011;56530;42.640;23.372;2023-08-06T01:15:28;3.08;;;2.40;;
69369;SDS011;56530;42.640;23.372;2023-08-06T01:17:54;3.25;;;2.65;;
69369;SDS011;56530;42.640;23.372;2023-08-06T01:20:19;3.53;;;2.78;;
69369;SDS011;56530;42.640;23.372;2023-08-06T01:22:45;3.53;;;3.08;;
69369;SDS011;56530;42.640;23.372;2023-08-06T01:25:10;2.80;;;2.40;;
69369;SDS011;56530;42.640;23.372;2023-08-06T01:30:15;2.97;;;2.72;;
69369;SDS011;56530;42.640;23.372;2023-08-06T01:32:43;5.97;;;3.25;;
69369;SDS011;56530;42.640;23.372;2023-08-06T01:35:10;3.22;;;2.90;;
69369;SDS011;56530;42.640;23.372;2023-08-06T01:37:36;4.63;;;2.97;;
69369;SDS011;56530;42.640;23.372;2023-08-06T01:40:05;3.83;;;3.42;;
69369;SDS011;56530;42.640;23.372;2023-08-06T01:42:39;3.30;;;3.10;;
69369;SDS011;56530;42.640;23.372;2023-08-06T01:45:08;3.50;;;3.20;;
69369;SDS011;56530;42.640;23.372;2023-08-06T01:47:34;4.57;;;3.38;;
69369;SDS011;56530;42.640;23.372;2023-08-06T01:49:59;4.65;;;3.33;;
69369;SDS011;56530;42.640;23.372;2023-08-06T01:52:25;6.50;;;3.72;;
69369;SDS011;56530;42.640;23.372;2023-08-06T01:54:51;4.75;;;2.92;;
69369;SDS011;56530;42.640;23.372;2023-08-06T01:57:16;3.75;;;3.03;;
69369;SDS011;56530;42.640;23.372;2023-08-06T01:59:41;4.68;;;3.58;;
69369;SDS011;56530;42.640;23.372;2023-08-06T02:02:07;5.05;;;3.20;;
69369;SDS011;56530;42.640;23.372;2023-08-06T02:04:32;3.42;;;3.08;;
69369;SDS011;56530;42.640;23.372;2023-08-06T02:06:58;3.80;;;2.88;;
69369;SDS011;56530;42.640;23.372;2023-08-06T02:09:23;5.18;;;3.67;;
69369;SDS011;56530;42.640;23.372;2023-08-06T02:11:48;3.88;;;3.53;;
69369;SDS011;56530;42.640;23.372;2023-08-06T02:14:14;5.70;;;3.45;;
69369;SDS011;56530;42.640;23.372;2023-08-06T02:16:39;4.32;;;3.50;;
69369;SDS011;56530;42.640;23.372;2023-08-06T02:19:05;4.95;;;3.35;;
69369;SDS011;56530;42.640;23.372;2023-08-06T02:21:30;3.95;;;3.00;;
69369;SDS011;56530;42.640;23.372;2023-08-06T02:23:55;3.80;;;3.50;;
69369;SDS011;56530;42.640;23.372;2023-08-06T02:26:21;5.53;;;3.40;;
69369;SDS011;56530;42.640;23.372;2023-08-06T02:28:46;3.80;;;3.50;;
69369;SDS011;56530;42.640;23.372;2023-08-06T02:31:11;3.38;;;2.97;;
69369;SDS011;56530;42.640;23.372;2023-08-06T02:33:37;6.60;;;3.67;;
69369;SDS011;56530;42.640;23.372;2023-08-06T02:36:02;3.97;;;3.15;;
69369;SDS011;56530;42.640;23.372;2023-08-06T02:38:29;2.97;;;2.70;;
69369;SDS011;56530;42.640;23.372;2023-08-06T02:40:54;3.33;;;3.03;;
69369;SDS011;56530;42.640;23.372;2023-08-06T02:43:20;3.40;;;3.17;;
69369;SDS011;56530;42.640;23.372;2023-08-06T02:45:45;4.82;;;2.90;;
69369;SDS011;56530;42.640;23.372;2023-08-06T02:48:11;3.65;;;3.35;;
69369;SDS011;56530;42.640;23.372;2023-08-06T02:50:40;3.30;;;3.10;;
69369;SDS011;56530;42.640;23.372;2023-08-06T02:53:06;3.30;;;3.00;;
69369;SDS011;56530;42.640;23.372;2023-08-06T02:55:34;3.97;;;3.53;;
69369;SDS011;56530;42.640;23.372;2023-08-06T02:58:00;4.90;;;2.92;;
69369;SDS011;56530;42.640;23.372;2023-08-06T03:00:26;4.45;;;3.90;;
69369;SDS011;56530;42.640;23.372;2023-08-06T03:02:52;4.35;;;3.33;;
69369;SDS011;56530;42.640;23.372;2023-08-06T03:05:18;3.67;;;3.38;;
69369;SDS011;56530;42.640;23.372;2023-08-06T03:07:44;3.05;;;2.85;;
69369;SDS011;56530;42.640;23.372;2023-08-06T03:10:09;5.07;;;3.38;;
69369;SDS011;56530;42.640;23.372;2023-08-06T03:12:34;14.95;;;3.92;;
69369;SDS011;56530;42.640;23.372;2023-08-06T03:15:00;3.30;;;3.00;;
69369;SDS011;56530;42.640;23.372;2023-08-06T03:17:25;4.35;;;3.95;;
69369;SDS011;56530;42.640;23.372;2023-08-06T03:19:51;3.67;;;3.35;;
69369;SDS011;56530;42.640;23.372;2023-08-06T03:22:18;4.30;;;3.55;;
69369;SDS011;56530;42.640;23.372;2023-08-06T03:24:43;6.28;;;3.50;;
69369;SDS011;56530;42.640;23.372;2023-08-06T03:27:08;4.30;;;2.75;;
69369;SDS011;56530;42.640;23.372;2023-08-06T03:29:34;3.95;;;3.58;;
69369;SDS011;56530;42.640;23.372;2023-08-06T03:31:59;3.35;;;3.05;;
69369;SDS011;56530;42.640;23.372;2023-08-06T03:34:24;4.10;;;3.58;;
69369;SDS011;56530;42.640;23.372;2023-08-06T03:36:50;2.95;;;2.70;;
69369;SDS011;56530;42.640;23.372;2023-08-06T03:39:15;4.88;;;3.70;;
69369;SDS011;56530;42.640;23.372;2023-08-06T03:41:41;4.50;;;3.10;;
69369;SDS011;56530;42.640;23.372;2023-08-06T03:44:06;3.45;;;3.15;;
69369;SDS011;56530;42.640;23.372;2023-08-06T03:46:31;3.58;;;3.05;;
69369;SDS011;56530;42.640;23.372;2023-08-06T03:48:59;3.50;;;3.20;;
69369;SDS011;56530;42.640;23.372;2023-08-06T03:51:24;4.93;;;3.50;;
69369;SDS011;56530;42.640;23.372;2023-08-06T03:53:50;6.28;;;3.95;;
69369;SDS011;56530;42.640;23.372;2023-08-06T03:56:15;5.35;;;3.55;;
69369;SDS011;56530;42.640;23.372;2023-08-06T03:58:40;3.80;;;3.50;;
69369;SDS011;56530;42.640;23.372;2023-08-06T04:01:06;4.78;;;3.70;;
69369;SDS011;56530;42.640;23.372;2023-08-06T04:03:31;4.10;;;3.20;;
69369;SDS011;56530;42.640;23.372;2023-08-06T04:05:57;4.20;;;3.60;;
69369;SDS011;56530;42.640;23.372;2023-08-06T04:08:22;4.10;;;3.70;;
69369;SDS011;56530;42.640;23.372;2023-08-06T04:10:51;3.88;;;3.58;;
69369;SDS011;56530;42.640;23.372;2023-08-06T04:13:17;4.47;;;3.65;;
69369;SDS011;56530;42.640;23.372;2023-08-06T04:15:42;3.28;;;2.97;;
69369;SDS011;56530;42.640;23.372;2023-08-06T04:18:08;3.53;;;3.22;;
69369;SDS011;56530;42.640;23.372;2023-08-06T04:20:33;3.97;;;3.20;;
69369;SDS011;56530;42.640;23.372;2023-08-06T04:22:58;3.72;;;3.35;;
69369;SDS011;56530;42.640;23.372;2023-08-06T04:25:24;4.47;;;3.10;;
69369;SDS011;56530;42.640;23.372;2023-08-06T04:27:50;4.35;;;3.40;;
69369;SDS011;56530;42.640;23.372;2023-08-06T04:30:15;5.10;;;3.30;;
69369;SDS011;56530;42.640;23.372;2023-08-06T04:32:40;3.67;;;3.20;;
69369;SDS011;56530;42.640;23.372;2023-08-06T04:35:06;3.42;;;3.03;;
69369;SDS011;56530;42.640;23.372;2023-08-06T04:37:32;3.90;;;3.15;;
69369;SDS011;56530;42.640;23.372;2023-08-06T04:39:57;6.80;;;2.97;;
69369;SDS011;56530;42.640;23.372;2023-08-06T04:42:22;4.78;;;3.22;;
69369;SDS011;56530;42.640;23.372;2023-08-06T04:44:48;3.90;;;3.40;;
69369;SDS011;56530;42.640;23.372;2023-08-06T04:47:13;5.03;;;3.53;;
69369;SDS011;56530;42.640;23.372;2023-08-06T04:49:39;3.40;;;3.10;;
69369;SDS011;56530;42.640;23.372;2023-08-06T04:52:04;4.47;;;3.90;;
69369;SDS011;56530;42.640;23.372;2023-08-06T04:54:30;3.55;;;3.35;;
69369;SDS011;56530;42.640;23.372;2023-08-06T04:56:55;4.95;;;3.38;;
69369;SDS011;56530;42.640;23.372;2023-08-06T04:59:21;2.90;;;2.70;;
69369;SDS011;56530;42.640;23.372;2023-08-06T05:01:46;6.03;;;3.53;;
69369;SDS011;56530;42.640;23.372;2023-08-06T05:04:11;3.28;;;3.03;;
69369;SDS011;56530;42.640;23.372;2023-08-06T05:06:37;3.10;;;2.90;;
69369;SDS011;56530;42.640;23.372;2023-08-06T05:09:03;4.38;;;3.00;;
69369;SDS011;56530;42.640;23.372;2023-08-06T05:11:29;4.40;;;2.90;;
69369;SDS011;56530;42.640;23.372;2023-08-06T05:13:55;3.88;;;2.67;;
69369;SDS011;56530;42.640;23.372;2023-08-06T05:16:20;9.27;;;2.97;;
69369;SDS011;56530;42.640;23.372;2023-08-06T05:18:45;3.28;;;3.05;;
69369;SDS011;56530;42.640;23.372;2023-08-06T05:21:11;4.32;;;3.00;;
69369;SDS011;56530;42.640;23.372;2023-08-06T05:23:36;5.28;;;4.13;;
69369;SDS011;56530;42.640;23.372;2023-08-06T05:26:02;4.72;;;4.43;;
69369;SDS011;56530;42.640;23.372;2023-08-06T05:28:27;5.32;;;4.93;;
69369;SDS011;56530;42.640;23.372;2023-08-06T05:30:52;8.07;;;4.60;;
69369;SDS011;56530;42.640;23.372;2023-08-06T05:33:18;5.22;;;4.82;;
69369;SDS011;56530;42.640;23.372;2023-08-06T05:35:43;5.18;;;4.70;;
69369;SDS011;56530;42.640;23.372;2023-08-06T05:38:09;4.15;;;3.85;;
69369;SDS011;56530;42.640;23.372;2023-08-06T05:40:34;6.00;;;4.70;;
69369;SDS011;56530;42.640;23.372;2023-08-06T05:43:00;5.50;;;5.00;;
69369;SDS011;56530;42.640;23.372;2023-08-06T05:45:25;9.10;;;4.90;;
69369;SDS011;56530;42.640;23.372;2023-08-06T05:47:51;5.80;;;5.40;;
69369;SDS011;56530;42.640;23.372;2023-08-06T05:50:18;8.15;;;5.13;;
69369;SDS011;56530;42.640;23.372;2023-08-06T05:52:44;5.60;;;5.20;;
69369;SDS011;56530;42.640;23.372;2023-08-06T05:55:09;6.97;;;6.25;;
69369;SDS011;56530;42.640;23.372;2023-08-06T05:57:35;8.85;;;6.72;;
69369;SDS011;56530;42.640;23.372;2023-08-06T06:00:00;7.35;;;6.32;;
69369;SDS011;56530;42.640;23.372;2023-08-06T06:02:26;7.72;;;6.22;;
69369;SDS011;56530;42.640;23.372;2023-08-06T06:04:52;8.55;;;6.90;;
69369;SDS011;56530;42.640;23.372;2023-08-06T06:07:17;7.18;;;6.53;;
69369;SDS011;56530;42.640;23.372;2023-08-06T06:09:43;6.85;;;6.35;;
69369;SDS011;56530;42.640;23.372;2023-08-06T06:12:08;6.35;;;5.15;;
69369;SDS011;56530;42.640;23.372;2023-08-06T06:14:34;7.53;;;5.40;;
69369;SDS011;56530;42.640;23.372;2023-08-06T06:16:59;5.93;;;5.20;;
69369;SDS011;56530;42.640;23.372;2023-08-06T06:19:25;9.38;;;5.85;;
69369;SDS011;56530;42.640;23.372;2023-08-06T06:21:51;5.30;;;4.90;;
69369;SDS011;56530;42.640;23.372;2023-08-06T06:24:16;9.55;;;6.50;;
69369;SDS011;56530;42.640;23.372;2023-08-06T06:26:42;5.88;;;5.38;;
69369;SDS011;56530;42.640;23.372;2023-08-06T06:29:07;6.13;;;5.32;;
69369;SDS011;56530;42.640;23.372;2023-08-06T06:31:33;5.25;;;4.85;;
69369;SDS011;56530;42.640;23.372;2023-08-06T06:33:58;5.30;;;4.43;;
69369;SDS011;56530;42.640;23.372;2023-08-06T06:36:23;5.47;;;5.03;;
69369;SDS011;56530;42.640;23.372;2023-08-06T06:38:49;5.43;;;4.40;;
69369;SDS011;56530;42.640;23.372;2023-08-06T06:41:14;4.80;;;4.10;;
69369;SDS011;56530;42.640;23.372;2023-08-06T06:43:40;4.28;;;2.80;;
69369;SDS011;56530;42.640;23.372;2023-08-06T06:46:05;3.17;;;2.90;;
69369;SDS011;56530;42.640;23.372;2023-08-06T06:48:31;6.32;;;3.70;;
69369;SDS011;56530;42.640;23.372;2023-08-06T06:50:58;4.63;;;4.05;;
69369;SDS011;56530;42.640;23.372;2023-08-06T06:53:23;4.25;;;3.35;;
69369;SDS011;56530;42.640;23.372;2023-08-06T06:56:02;4.70;;;3.60;;
69369;SDS011;56530;42.640;23.372;2023-08-06T06:58:29;3.35;;;3.05;;
69369;SDS011;56530;42.640;23.372;2023-08-06T07:00:54;3.67;;;3.38;;
69369;SDS011;56530;42.640;23.372;2023-08-06T07:03:20;5.00;;;3.00;;
69369;SDS011;56530;42.640;23.372;2023-08-06T07:05:45;3.90;;;3.03;;
69369;SDS011;56530;42.640;23.372;2023-08-06T07:08:11;4.10;;;3.65;;
69369;SDS011;56530;42.640;23.372;2023-08-06T07:10:36;8.00;;;4.80;;
69369;SDS011;56530;42.640;23.372;2023-08-06T07:13:02;6.85;;;6.20;;
69369;SDS011;56530;42.640;23.372;2023-08-06T07:15:28;5.65;;;5.25;;
69369;SDS011;56530;42.640;23.372;2023-08-06T07:17:53;6.55;;;5.93;;
69369;SDS011;56530;42.640;23.372;2023-08-06T07:20:18;6.68;;;6.07;;
69369;SDS011;56530;42.640;23.372;2023-08-06T07:22:44;6.63;;;6.03;;
69369;SDS011;56530;42.640;23.372;2023-08-06T07:25:10;6.20;;;5.70;;
69369;SDS011;56530;42.640;23.372;2023-08-06T07:27:35;5.75;;;4.72;;
69369;SDS011;56530;42.640;23.372;2023-08-06T07:30:01;4.60;;;4.20;;
69369;SDS011;56530;42.640;23.372;2023-08-06T07:32:26;4.47;;;4.18;;
69369;SDS011;56530;42.640;23.372;2023-08-06T07:34:53;4.47;;;3.78;;
69369;SDS011;56530;42.640;23.372;2023-08-06T07:37:22;3.67;;;3.30;;
69369;SDS011;56530;42.640;23.372;2023-08-06T07:39:48;3.20;;;2.95;;
69369;SDS011;56530;42.640;23.372;2023-08-06T07:42:13;7.65;;;4.78;;
69369;SDS011;56530;42.640;23.372;2023-08-06T07:44:39;3.40;;;3.10;;
69369;SDS011;56530;42.640;23.372;2023-08-06T07:47:04;15.93;;;4.90;;
69369;SDS011;56530;42.640;23.372;2023-08-06T07:49:30;6.38;;;2.92;;
69369;SDS011;56530;42.640;23.372;2023-08-06T07:51:55;8.52;;;3.33;;
69369;SDS011;56530;42.640;23.372;2023-08-06T07:54:20;2.92;;;2.72;;
69369;SDS011;56530;42.640;23.372;2023-08-06T07:56:46;4.35;;;2.08;;
69369;SDS011;56530;42.640;23.372;2023-08-06T07:59:12;6.05;;;3.20;;
69369;SDS011;56530;42.640;23.372;2023-08-06T08:01:37;3.10;;;2.90;;
69369;SDS011;56530;42.640;23.372;2023-08-06T08:04:03;3.88;;;3.08;;
69369;SDS011;56530;42.640;23.372;2023-08-06T08:06:29;2.80;;;2.60;;
69369;SDS011;56530;42.640;23.372;2023-08-06T08:08:55;7.10;;;2.90;;
69369;SDS011;56530;42.640;23.372;2023-08-06T08:11:20;3.22;;;2.95;;
69369;SDS011;56530;42.640;23.372;2023-08-06T08:13:45;3.58;;;2.47;;
69369;SDS011;56530;42.640;23.372;2023-08-06T08:16:11;4.25;;;2.85;;
69369;SDS011;56530;42.640;23.372;2023-08-06T08:18:36;2.95;;;2.75;;
69369;SDS011;56530;42.640;23.372;2023-08-06T08:21:02;5.95;;;3.15;;
69369;SDS011;56530;42.640;23.372;2023-08-06T08:23:27;3.15;;;2.95;;
69369;SDS011;56530;42.640;23.372;2023-08-06T08:25:52;2.95;;;2.65;;
69369;SDS011;56530;42.640;23.372;2023-08-06T08:28:18;3.10;;;2.47;;
69369;SDS011;56530;42.640;23.372;2023-08-06T08:30:44;7.07;;;3.15;;
69369;SDS011;56530;42.640;23.372;2023-08-06T08:33:09;7.78;;;3.95;;
69369;SDS011;56530;42.640;23.372;2023-08-06T08:35:35;4.60;;;2.60;;
69369;SDS011;56530;42.640;23.372;2023-08-06T08:38:01;3.15;;;2.95;;
69369;SDS011;56530;42.640;23.372;2023-08-06T08:40:29;3.33;;;2.55;;
69369;SDS011;56530;42.640;23.372;2023-08-06T08:42:56;3.25;;;2.92;;
69369;SDS011;56530;42.640;23.372;2023-08-06T08:45:22;3.08;;;2.88;;
69369;SDS011;56530;42.640;23.372;2023-08-06T08:47:51;4.57;;;2.65;;
69369;SDS011;56530;42.640;23.372;2023-08-06T08:50:17;10.57;;;2.30;;
69369;SDS011;56530;42.640;23.372;2023-08-06T08:52:44;2.83;;;2.63;;
69369;SDS011;56530;42.640;23.372;2023-08-06T08:55:14;5.68;;;3.50;;
69369;SDS011;56530;42.640;23.372;2023-08-06T08:57:40;2.92;;;2.42;;
69369;SDS011;56530;42.640;23.372;2023-08-06T09:00:05;3.03;;;2.58;;
69369;SDS011;56530;42.640;23.372;2023-08-06T09:02:32;3.40;;;2.97;;
69369;SDS011;56530;42.640;23.372;2023-08-06T09:04:58;3.60;;;2.67;;
69369;SDS011;56530;42.640;23.372;2023-08-06T09:07:26;2.45;;;2.30;;
69369;SDS011;56530;42.640;23.372;2023-08-06T09:09:52;4.10;;;2.72;;
69369;SDS011;56530;42.640;23.372;2023-08-06T09:12:18;6.18;;;3.63;;
69369;SDS011;56530;42.640;23.372;2023-08-06T09:14:43;2.72;;;2.17;;
69369;SDS011;56530;42.640;23.372;2023-08-06T09:17:09;4.47;;;3.30;;
69369;SDS011;56530;42.640;23.372;2023-08-06T09:19:36;3.70;;;3.17;;
69369;SDS011;56530;42.640;23.372;2023-08-06T09:22:01;4.82;;;2.80;;
69369;SDS011;56530;42.640;23.372;2023-08-06T09:24:27;2.83;;;2.63;;
69369;SDS011;56530;42.640;23.372;2023-08-06T09:26:53;4.57;;;3.15;;
69369;SDS011;56530;42.640;23.372;2023-08-06T09:29:19;2.88;;;2.67;;
69369;SDS011;56530;42.640;23.372;2023-08-06T09:31:45;3.25;;;3.03;;
69369;SDS011;56530;42.640;23.372;2023-08-06T09:34:17;4.28;;;2.60;;
69369;SDS011;56530;42.640;23.372;2023-08-06T09:36:47;4.72;;;2.83;;
69369;SDS011;56530;42.640;23.372;2023-08-06T09:39:17;3.00;;;2.67;;
69369;SDS011;56530;42.640;23.372;2023-08-06T09:41:44;4.47;;;2.38;;
69369;SDS011;56530;42.640;23.372;2023-08-06T09:44:22;10.18;;;2.58;;
69369;SDS011;56530;42.640;23.372;2023-08-06T09:46:49;2.70;;;2.50;;
69369;SDS011;56530;42.640;23.372;2023-08-06T09:49:16;4.82;;;2.85;;
69369;SDS011;56530;42.640;23.372;2023-08-06T09:51:42;2.50;;;2.30;;
69369;SDS011;56530;42.640;23.372;2023-08-06T09:54:09;4.22;;;2.28;;
69369;SDS011;56530;42.640;23.372;2023-08-06T09:56:37;2.63;;;2.42;;
69369;SDS011;56530;42.640;23.372;2023-08-06T09:59:06;4.00;;;2.22;;
69369;SDS011;56530;42.640;23.372;2023-08-06T10:01:32;3.30;;;2.05;;
69369;SDS011;56530;42.640;23.372;2023-08-06T10:03:58;2.50;;;2.30;;
69369;SDS011;56530;42.640;23.372;2023-08-06T10:06:25;2.95;;;2.65;;
69369;SDS011;56530;42.640;23.372;2023-08-06T10:08:51;3.58;;;2.13;;
69369;SDS011;56530;42.640;23.372;2023-08-06T10:11:17;2.95;;;2.75;;
69369;SDS011;56530;42.640;23.372;2023-08-06T10:13:42;3.60;;;3.28;;
69369;SDS011;56530;42.640;23.372;2023-08-06T10:16:08;3.00;;;2.80;;
69369;SDS011;56530;42.640;23.372;2023-08-06T10:18:35;2.00;;;1.90;;
69369;SDS011;56530;42.640;23.372;2023-08-06T10:21:04;3.00;;;2.13;;
69369;SDS011;56530;42.640;23.372;2023-08-06T10:23:33;8.43;;;2.65;;
69369;SDS011;56530;42.640;23.372;2023-08-06T10:26:00;5.03;;;2.67;;
69369;SDS011;56530;42.640;23.372;2023-08-06T10:28:33;2.60;;;1.73;;
69369;SDS011;56530;42.640;23.372;2023-08-06T10:31:02;2.80;;;2.60;;
69369;SDS011;56530;42.640;23.372;2023-08-06T10:33:50;4.05;;;3.65;;
69369;SDS011;56530;42.640;23.372;2023-08-06T10:36:15;6.18;;;4.13;;
69369;SDS011;56530;42.640;23.372;2023-08-06T10:38:47;4.22;;;2.60;;
69369;SDS011;56530;42.640;23.372;2023-08-06T10:41:23;5.60;;;2.55;;
69369;SDS011;56530;42.640;23.372;2023-08-06T10:43:53;2.15;;;1.95;;
69369;SDS011;56530;42.640;23.372;2023-08-06T10:46:30;2.47;;;1.70;;
69369;SDS011;56530;42.640;23.372;2023-08-06T10:48:55;4.15;;;2.60;;
69369;SDS011;56530;42.640;23.372;2023-08-06T10:51:21;2.72;;;2.53;;
69369;SDS011;56530;42.640;23.372;2023-08-06T10:53:50;5.50;;;2.08;;
69369;SDS011;56530;42.640;23.372;2023-08-06T10:58:48;3.05;;;2.40;;
69369;SDS011;56530;42.640;23.372;2023-08-06T11:01:14;6.47;;;3.55;;
69369;SDS011;56530;42.640;23.372;2023-08-06T11:03:40;3.70;;;2.45;;
69369;SDS011;56530;42.640;23.372;2023-08-06T11:06:07;2.95;;;2.55;;
69369;SDS011;56530;42.640;23.372;2023-08-06T11:08:36;3.30;;;3.00;;
69369;SDS011;56530;42.640;23.372;2023-08-06T11:11:12;2.75;;;2.55;;
69369;SDS011;56530;42.640;23.372;2023-08-06T11:16:07;2.78;;;2.58;;
69369;SDS011;56530;42.640;23.372;2023-08-06T11:18:33;3.53;;;2.83;;
69369;SDS011;56530;42.640;23.372;2023-08-06T11:20:59;4.53;;;3.22;;
69369;SDS011;56530;42.640;23.372;2023-08-06T11:23:26;4.65;;;2.78;;
69369;SDS011;56530;42.640;23.372;2023-08-06T11:25:53;2.70;;;2.50;;
69369;SDS011;56530;42.640;23.372;2023-08-06T11:28:19;4.22;;;2.70;;
69369;SDS011;56530;42.640;23.372;2023-08-06T11:30:46;2.33;;;2.10;;
69369;SDS011;56530;42.640;23.372;2023-08-06T11:33:12;2.40;;;2.20;;
69369;SDS011;56530;42.640;23.372;2023-08-06T11:35:37;1.98;;;1.88;;
69369;SDS011;56530;42.640;23.372;2023-08-06T11:38:03;1.80;;;1.70;;
69369;SDS011;56530;42.640;23.372;2023-08-06T11:40:28;3.08;;;2.72;;
69369;SDS011;56530;42.640;23.372;2023-08-06T11:42:53;5.40;;;2.40;;
69369;SDS011;56530;42.640;23.372;2023-08-06T11:45:22;2.60;;;2.45;;
69369;SDS011;56530;42.640;23.372;2023-08-06T11:47:51;4.38;;;2.50;;
69369;SDS011;56530;42.640;23.372;2023-08-06T11:50:27;5.05;;;2.42;;
69369;SDS011;56530;42.640;23.372;2023-08-06T11:52:56;3.03;;;2.83;;
69369;SDS011;56530;42.640;23.372;2023-08-06T11:55:23;3.03;;;2.83;;
69369;SDS011;56530;42.640;23.372;2023-08-06T11:57:49;3.65;;;2.72;;
69369;SDS011;56530;42.640;23.372;2023-08-06T12:00:15;4.03;;;3.03;;
69369;SDS011;56530;42.640;23.372;2023-08-06T12:02:43;3.55;;;2.90;;
69369;SDS011;56530;42.640;23.372;2023-08-06T12:07:44;4.80;;;2.63;;
69369;SDS011;56530;42.640;23.372;2023-08-06T12:10:12;2.90;;;2.70;;
69369;SDS011;56530;42.640;23.372;2023-08-06T12:12:37;11.93;;;3.95;;
69369;SDS011;56530;42.640;23.372;2023-08-06T12:15:04;2.80;;;2.63;;
69369;SDS011;56530;42.640;23.372;2023-08-06T12:17:31;3.35;;;3.15;;
69369;SDS011;56530;42.640;23.372;2023-08-06T12:19:56;2.88;;;2.58;;
69369;SDS011;56530;42.640;23.372;2023-08-06T12:22:22;3.20;;;2.90;;
69369;SDS011;56530;42.640;23.372;2023-08-06T12:24:47;3.08;;;2.83;;
69369;SDS011;56530;42.640;23.372;2023-08-06T12:27:13;4.70;;;3.20;;
69369;SDS011;56530;42.640;23.372;2023-08-06T12:29:42;5.53;;;3.50;;
69369;SDS011;56530;42.640;23.372;2023-08-06T12:32:08;5.72;;;3.42;;
69369;SDS011;56530;42.640;23.372;2023-08-06T12:34:35;3.75;;;3.45;;
69369;SDS011;56530;42.640;23.372;2023-08-06T12:37:00;4.65;;;3.42;;
69369;SDS011;56530;42.640;23.372;2023-08-06T12:39:27;8.82;;;3.67;;
69369;SDS011;56530;42.640;23.372;2023-08-06T12:41:54;6.20;;;4.38;;
69369;SDS011;56530;42.640;23.372;2023-08-06T12:44:20;4.57;;;4.15;;
69369;SDS011;56530;42.640;23.372;2023-08-06T12:46:46;7.28;;;4.25;;
69369;SDS011;56530;42.640;23.372;2023-08-06T12:49:11;5.20;;;4.03;;
69369;SDS011;56530;42.640;23.372;2023-08-06T12:51:36;8.77;;;4.43;;
69369;SDS011;56530;42.640;23.372;2023-08-06T12:54:02;5.57;;;4.03;;
69369;SDS011;56530;42.640;23.372;2023-08-06T12:56:27;7.18;;;4.47;;
69369;SDS011;56530;42.640;23.372;2023-08-06T12:58:54;5.88;;;4.10;;
69369;SDS011;56530;42.640;23.372;2023-08-06T13:01:19;8.00;;;3.90;;
69369;SDS011;56530;42.640;23.372;2023-08-06T13:03:44;8.15;;;3.58;;
69369;SDS011;56530;42.640;23.372;2023-08-06T13:06:10;11.15;;;4.45;;
69369;SDS011;56530;42.640;23.372;2023-08-06T13:08:36;11.23;;;4.78;;
69369;SDS011;56530;42.640;23.372;2023-08-06T13:11:01;5.00;;;4.30;;
69369;SDS011;56530;42.640;23.372;2023-08-06T13:13:26;6.75;;;3.90;;
69369;SDS011;56530;42.640;23.372;2023-08-06T13:15:52;3.80;;;3.50;;
69369;SDS011;56530;42.640;23.372;2023-08-06T13:18:17;5.57;;;4.28;;
69369;SDS011;56530;42.640;23.372;2023-08-06T13:20:43;5.05;;;4.65;;
69369;SDS011;56530;42.640;23.372;2023-08-06T13:23:09;3.97;;;3.67;;
69369;SDS011;56530;42.640;23.372;2023-08-06T13:25:34;3.70;;;3.40;;
69369;SDS011;56530;42.640;23.372;2023-08-06T13:28:02;4.30;;;3.88;;
69369;SDS011;56530;42.640;23.372;2023-08-06T13:30:28;8.82;;;3.97;;
69369;SDS011;56530;42.640;23.372;2023-08-06T13:32:53;5.45;;;3.85;;
69369;SDS011;56530;42.640;23.372;2023-08-06T13:35:21;4.22;;;3.88;;
69369;SDS011;56530;42.640;23.372;2023-08-06T13:37:47;6.45;;;5.50;;
69369;SDS011;56530;42.640;23.372;2023-08-06T13:40:13;5.50;;;3.60;;
69369;SDS011;56530;42.640;23.372;2023-08-06T13:42:38;5.55;;;3.58;;
69369;SDS011;56530;42.640;23.372;2023-08-06T13:45:04;4.03;;;3.67;;
69369;SDS011;56530;42.640;23.372;2023-08-06T13:47:31;3.75;;;3.45;;
69369;SDS011;56530;42.640;23.372;2023-08-06T13:49:56;5.80;;;3.60;;
69369;SDS011;56530;42.640;23.372;2023-08-06T13:52:21;4.22;;;3.83;;
69369;SDS011;56530;42.640;23.372;2023-08-06T13:54:47;6.32;;;3.70;;
69369;SDS011;56530;42.640;23.372;2023-08-06T13:57:12;4.75;;;3.45;;
69369;SDS011;56530;42.640;23.372;2023-08-06T13:59:37;5.13;;;3.60;;
69369;SDS011;56530;42.640;23.372;2023-08-06T14:02:03;4.85;;;4.03;;
69369;SDS011;56530;42.640;23.372;2023-08-06T14:04:29;7.78;;;4.30;;
69369;SDS011;56530;42.640;23.372;2023-08-06T14:06:54;4.22;;;3.92;;
69369;SDS011;56530;42.640;23.372;2023-08-06T14:09:19;4.28;;;3.97;;
69369;SDS011;56530;42.640;23.372;2023-08-06T14:11:45;4.85;;;3.72;;
69369;SDS011;56530;42.640;23.372;2023-08-06T14:14:11;3.50;;;3.30;;
69369;SDS011;56530;42.640;23.372;2023-08-06T14:16:36;6.50;;;3.03;;
69369;SDS011;56530;42.640;23.372;2023-08-06T14:19:02;5.20;;;4.32;;
69369;SDS011;56530;42.640;23.372;2023-08-06T14:21:28;4.20;;;3.53;;
69369;SDS011;56530;42.640;23.372;2023-08-06T14:23:53;3.55;;;3.25;;
69369;SDS011;56530;42.640;23.372;2023-08-06T14:26:19;4.60;;;3.92;;
69369;SDS011;56530;42.640;23.372;2023-08-06T14:28:44;3.80;;;3.50;;
69369;SDS011;56530;42.640;23.372;2023-08-06T14:31:10;4.05;;;3.65;;
69369;SDS011;56530;42.640;23.372;2023-08-06T14:33:36;9.57;;;2.67;;
69369;SDS011;56530;42.640;23.372;2023-08-06T14:36:02;3.97;;;3.67;;
69369;SDS011;56530;42.640;23.372;2023-08-06T14:38:27;3.92;;;3.25;;
69369;SDS011;56530;42.640;23.372;2023-08-06T14:40:52;6.47;;;3.67;;
69369;SDS011;56530;42.640;23.372;2023-08-06T14:43:18;4.65;;;3.65;;